Time;durP1;ratioP1;P1;durP2;ratioP2;P2;SDS_P1;SDS_P2;PMS_P1;PMS_P2;Temp;Humidity;BMP_temperature;BMP_pressure;BME280_temperature;BME280_humidity;BME280_pressure;Samples;Min_cycle;Max_cycle;Signal;HPM_P1;HPM_P2
2021/12/01 00:01:57;;;;;;;12.55;3.30;;;;;;;;;;5031682;28;20024;-68
2021/12/01 00:04:23;;;;;;;17.67;4.07;;;;;;;;;;5031449;28;20029;-68
2021/12/01 00:06:49;;;;;;;8.85;2.00;;;;;;;;;;5031739;28;20026;-68
2021/12/01 00:09:15;;;;;;;18.95;5.03;;;;;;;;;;5031804;28;20030;-67
2021/12/01 00:11:41;;;;;;;15.00;3.30;;;;;;;;;;5031676;28;20029;-68
2021/12/01 00:14:07;;;;;;;11.93;3.42;;;;;;;;;;5031554;28;20700;-67
2021/12/01 00:16:33;;;;;;;12.27;3.10;;;;;;;;;;5031416;28;20097;-67
2021/12/01 00:18:59;;;;;;;12.00;3.45;;;;;;;;;;5031794;28;20046;-68
2021/12/01 00:21:25;;;;;;;13.20;3.25;;;;;;;;;;5031294;28;20155;-67
2021/12/01 00:23:51;;;;;;;16.27;2.88;;;;;;;;;;5029723;28;20032;-67
2021/12/01 00:26:17;;;;;;;10.13;2.90;;;;;;;;;;5030333;28;20033;-67
2021/12/01 00:28:43;;;;;;;9.57;3.00;;;;;;;;;;5031604;28;20021;-68
2021/12/01 00:31:09;;;;;;;12.45;2.75;;;;;;;;;;5031478;28;20471;-68
2021/12/01 00:33:35;;;;;;;14.32;2.45;;;;;;;;;;5029937;28;20114;-68
2021/12/01 00:36:01;;;;;;;15.73;2.25;;;;;;;;;;5032549;28;20034;-68
2021/12/01 00:38:28;;;;;;;15.00;3.20;;;;;;;;;;5035579;28;20491;-67
2021/12/01 00:40:55;;;;;;;12.55;3.53;;;;;;;;;;5035280;28;20026;-67
2021/12/01 00:43:24;;;;;;;10.43;2.72;;;;;;;;;;5034990;28;20026;-68
2021/12/01 00:45:54;;;;;;;14.88;2.38;;;;;;;;;;5035416;28;20053;-68
2021/12/01 00:48:20;;;;;;;8.07;2.33;;;;;;;;;;5035360;28;20025;-67
2021/12/01 00:50:47;;;;;;;13.82;2.75;;;;;;;;;;5035292;28;20033;-68
2021/12/01 00:53:13;;;;;;;13.07;3.83;;;;;;;;;;5034992;28;20025;-68
2021/12/01 00:55:42;;;;;;;15.25;2.63;;;;;;;;;;5035057;28;20033;-68
2021/12/01 00:58:09;;;;;;;20.38;3.97;;;;;;;;;;5035432;28;20045;-68
2021/12/01 01:00:35;;;;;;;9.82;1.95;;;;;;;;;;5035059;28;20053;-68
2021/12/01 01:03:01;;;;;;;7.53;2.30;;;;;;;;;;5034850;28;20057;-68
2021/12/01 01:05:27;;;;;;;5.75;1.70;;;;;;;;;;5035056;28;20029;-69
2021/12/01 01:07:53;;;;;;;12.95;2.70;;;;;;;;;;5033779;28;20029;-68
2021/12/01 01:18:20;;;;;;;11.27;2.08;;;;;;;;;;5035214;28;20083;-68
2021/12/01 01:20:46;;;;;;;5.65;2.33;;;;;;;;;;5034389;28;20422;-67
2021/12/01 01:23:12;;;;;;;8.05;2.28;;;;;;;;;;5033695;28;20076;-67
2021/12/01 01:25:38;;;;;;;10.77;2.58;;;;;;;;;;5033773;28;20059;-67
2021/12/01 01:28:04;;;;;;;8.82;2.28;;;;;;;;;;5034571;28;20028;-67
2021/12/01 01:30:31;;;;;;;6.97;2.40;;;;;;;;;;5034435;28;20510;-67
2021/12/01 01:32:57;;;;;;;10.93;2.70;;;;;;;;;;5034379;28;20053;-67
2021/12/01 01:35:23;;;;;;;12.45;2.45;;;;;;;;;;5034397;28;20034;-67
2021/12/01 01:37:49;;;;;;;9.00;1.75;;;;;;;;;;5034276;28;20056;-67
2021/12/01 01:40:15;;;;;;;12.85;2.60;;;;;;;;;;5034173;28;20021;-67
2021/12/01 01:42:41;;;;;;;10.02;2.38;;;;;;;;;;5034170;28;20030;-69
2021/12/01 01:45:08;;;;;;;9.73;1.73;;;;;;;;;;5034052;28;20025;-67
2021/12/01 01:47:35;;;;;;;7.30;2.13;;;;;;;;;;5033483;28;20029;-67
2021/12/01 01:52:34;;;;;;;6.63;1.90;;;;;;;;;;5034130;28;20521;-67
2021/12/01 01:55:00;;;;;;;7.97;1.67;;;;;;;;;;5033779;28;20048;-67
2021/12/01 01:57:26;;;;;;;6.25;1.45;;;;;;;;;;5032550;28;20088;-67
2021/12/01 01:59:52;;;;;;;9.70;1.75;;;;;;;;;;5032604;28;20064;-67
2021/12/01 02:02:18;;;;;;;8.85;1.92;;;;;;;;;;5033937;28;20034;-67
2021/12/01 02:04:44;;;;;;;6.47;1.63;;;;;;;;;;5034303;28;20108;-67
2021/12/01 02:07:11;;;;;;;8.77;2.50;;;;;;;;;;5032494;28;20029;-67
2021/12/01 02:09:37;;;;;;;5.03;1.30;;;;;;;;;;5033646;28;20730;-69
2021/12/01 02:12:04;;;;;;;5.35;1.40;;;;;;;;;;5033985;28;20047;-67
2021/12/01 02:14:31;;;;;;;9.25;2.53;;;;;;;;;;5033764;28;20050;-68
2021/12/01 02:16:57;;;;;;;10.60;2.35;;;;;;;;;;5032552;28;20090;-68
2021/12/01 02:19:24;;;;;;;11.00;2.05;;;;;;;;;;5034098;28;20047;-68
2021/12/01 02:21:50;;;;;;;10.52;2.40;;;;;;;;;;5032280;28;20121;-67
2021/12/01 02:24:17;;;;;;;9.45;1.85;;;;;;;;;;5031922;28;20367;-68
2021/12/01 02:26:45;;;;;;;7.43;1.52;;;;;;;;;;5033612;28;20037;-68
2021/12/01 02:29:12;;;;;;;9.27;1.92;;;;;;;;;;5033469;28;20026;-67
2021/12/01 02:31:38;;;;;;;13.82;2.00;;;;;;;;;;5033204;28;20033;-67
2021/12/01 02:34:07;;;;;;;6.57;1.77;;;;;;;;;;5033118;28;20034;-67
2021/12/01 02:36:33;;;;;;;7.05;1.88;;;;;;;;;;5033715;28;20047;-67
2021/12/01 02:38:59;;;;;;;6.63;1.23;;;;;;;;;;5033493;28;20037;-68
2021/12/01 02:41:29;;;;;;;6.70;1.42;;;;;;;;;;5032901;28;20022;-67
2021/12/01 02:43:55;;;;;;;5.68;2.08;;;;;;;;;;5033059;28;20112;-67
2021/12/01 02:46:21;;;;;;;7.43;2.05;;;;;;;;;;5032052;28;20470;-67
2021/12/01 02:48:48;;;;;;;5.85;1.33;;;;;;;;;;5032969;28;20025;-68
2021/12/01 02:51:14;;;;;;;6.45;1.63;;;;;;;;;;5018044;28;20026;-68
2021/12/01 02:53:41;;;;;;;13.35;2.60;;;;;;;;;;5018347;28;20025;-68
2021/12/01 02:56:07;;;;;;;9.25;1.45;;;;;;;;;;5019176;28;20052;-67
2021/12/01 02:58:38;;;;;;;12.20;2.13;;;;;;;;;;5027584;28;20088;-67
2021/12/01 03:01:05;;;;;;;4.10;1.50;;;;;;;;;;5026276;28;20029;-68
2021/12/01 03:03:32;;;;;;;3.33;1.60;;;;;;;;;;5031474;28;20459;-68
2021/12/01 03:05:58;;;;;;;6.53;1.45;;;;;;;;;;5031448;28;20025;-68
2021/12/01 03:08:25;;;;;;;5.70;1.42;;;;;;;;;;5025548;28;20475;-67
2021/12/01 03:10:52;;;;;;;6.63;1.95;;;;;;;;;;5032714;28;20053;-67
2021/12/01 03:13:18;;;;;;;6.18;1.80;;;;;;;;;;5032631;28;20033;-67
2021/12/01 03:15:44;;;;;;;4.22;1.63;;;;;;;;;;5032415;28;20538;-67
2021/12/01 03:18:11;;;;;;;6.63;1.70;;;;;;;;;;5032503;28;20502;-67
2021/12/01 03:20:37;;;;;;;6.10;1.60;;;;;;;;;;5032448;28;20032;-68
2021/12/01 03:23:03;;;;;;;3.42;1.63;;;;;;;;;;5032450;28;20505;-67
2021/12/01 03:25:29;;;;;;;4.68;2.13;;;;;;;;;;5018822;28;20026;-68
2021/12/01 03:27:55;;;;;;;6.25;2.30;;;;;;;;;;5031036;28;20032;-69
2021/12/01 03:30:22;;;;;;;5.97;2.42;;;;;;;;;;5032040;28;20026;-66
2021/12/01 03:32:49;;;;;;;6.72;2.28;;;;;;;;;;5032098;28;20216;-67
2021/12/01 03:35:15;;;;;;;2.90;1.85;;;;;;;;;;5032367;28;20061;-68
2021/12/01 03:37:42;;;;;;;2.83;1.98;;;;;;;;;;5031043;28;20021;-68
2021/12/01 03:40:09;;;;;;;3.80;2.08;;;;;;;;;;5031942;28;20096;-68
2021/12/01 03:42:35;;;;;;;5.75;2.75;;;;;;;;;;5032222;28;20021;-68
2021/12/01 03:45:01;;;;;;;4.97;2.28;;;;;;;;;;5031877;28;20296;-68
2021/12/01 03:47:27;;;;;;;6.38;2.10;;;;;;;;;;5031865;28;20021;-68
2021/12/01 03:49:53;;;;;;;4.78;2.15;;;;;;;;;;5032126;28;20095;-68
2021/12/01 03:52:20;;;;;;;5.82;2.78;;;;;;;;;;5030535;28;20033;-68
2021/12/01 03:54:47;;;;;;;7.18;3.05;;;;;;;;;;5031554;28;20029;-68
2021/12/01 03:57:13;;;;;;;4.30;2.45;;;;;;;;;;5031854;28;20034;-68
2021/12/01 03:59:40;;;;;;;3.85;2.10;;;;;;;;;;5018932;28;20038;-68
2021/12/01 04:02:06;;;;;;;4.30;2.53;;;;;;;;;;5031808;28;20029;-68
2021/12/01 04:04:32;;;;;;;7.18;2.80;;;;;;;;;;5031714;28;20025;-68
2021/12/01 04:06:58;;;;;;;4.63;1.95;;;;;;;;;;5031729;28;20260;-68
2021/12/01 04:09:24;;;;;;;4.55;2.00;;;;;;;;;;5031633;28;20026;-68
2021/12/01 04:11:50;;;;;;;9.57;3.00;;;;;;;;;;5030827;28;20090;-67
2021/12/01 04:14:16;;;;;;;4.85;2.33;;;;;;;;;;5019675;28;20064;-67
2021/12/01 04:16:42;;;;;;;2.80;2.10;;;;;;;;;;5032058;28;20048;-67
2021/12/01 04:19:08;;;;;;;5.95;2.10;;;;;;;;;;5032022;28;20453;-67
2021/12/01 04:21:35;;;;;;;4.05;2.20;;;;;;;;;;5044115;23;20084;-71
2021/12/01 04:24:01;;;;;;;4.30;2.58;;;;;;;;;;5030483;28;20040;-71
2021/12/01 04:26:31;;;;;;;3.60;2.10;;;;;;;;;;5031269;28;20109;-71
2021/12/01 04:28:57;;;;;;;5.90;2.53;;;;;;;;;;5031415;28;20101;-71
2021/12/01 04:31:24;;;;;;;5.57;2.15;;;;;;;;;;5031246;28;20030;-71
2021/12/01 04:33:50;;;;;;;5.50;3.33;;;;;;;;;;5031108;28;20038;-71
2021/12/01 04:36:17;;;;;;;7.30;3.20;;;;;;;;;;5029923;28;20446;-70
2021/12/01 04:38:43;;;;;;;3.30;2.80;;;;;;;;;;5031326;28;20519;-70
2021/12/01 04:41:13;;;;;;;9.73;3.80;;;;;;;;;;5031125;28;20403;-71
2021/12/01 04:43:39;;;;;;;5.15;3.00;;;;;;;;;;5031194;28;20021;-71
2021/12/01 04:46:05;;;;;;;8.82;4.47;;;;;;;;;;5031141;28;20026;-71
2021/12/01 04:48:32;;;;;;;11.35;3.90;;;;;;;;;;5031183;28;20029;-71
2021/12/01 04:50:58;;;;;;;7.43;3.38;;;;;;;;;;5031106;28;20025;-70
2021/12/01 04:53:25;;;;;;;10.27;3.78;;;;;;;;;;5030837;28;20491;-71
2021/12/01 04:55:51;;;;;;;7.05;3.42;;;;;;;;;;5029765;28;20521;-71
2021/12/01 04:58:18;;;;;;;7.95;3.20;;;;;;;;;;5025888;28;20116;-71
2021/12/01 05:00:44;;;;;;;6.75;3.70;;;;;;;;;;5022648;28;20159;-71
2021/12/01 05:03:10;;;;;;;8.52;3.53;;;;;;;;;;5030808;28;20072;-71
2021/12/01 05:05:36;;;;;;;5.20;3.22;;;;;;;;;;5030802;28;20033;-71
2021/12/01 05:08:03;;;;;;;6.45;3.08;;;;;;;;;;5030807;28;20022;-70
2021/12/01 05:10:29;;;;;;;7.55;3.05;;;;;;;;;;5030870;28;20419;-71
2021/12/01 05:12:55;;;;;;;6.80;3.33;;;;;;;;;;5029762;28;20694;-71
2021/12/01 05:15:21;;;;;;;9.25;3.75;;;;;;;;;;5031297;28;20487;-71
2021/12/01 05:17:47;;;;;;;5.82;2.53;;;;;;;;;;5031061;28;20036;-70
2021/12/01 05:20:13;;;;;;;10.02;3.88;;;;;;;;;;5029305;28;20116;-71
2021/12/01 05:22:39;;;;;;;7.80;2.92;;;;;;;;;;5031163;28;20402;-70
2021/12/01 05:25:06;;;;;;;4.68;2.50;;;;;;;;;;5034396;28;20021;-71
2021/12/01 05:27:32;;;;;;;5.82;3.05;;;;;;;;;;5034196;28;20549;-71
2021/12/01 05:29:58;;;;;;;5.63;2.45;;;;;;;;;;5034536;28;20108;-71
2021/12/01 05:32:25;;;;;;;3.42;2.30;;;;;;;;;;5034398;28;20096;-71
2021/12/01 05:34:51;;;;;;;3.38;1.65;;;;;;;;;;5033171;28;20034;-70
2021/12/01 05:37:17;;;;;;;2.10;1.40;;;;;;;;;;5033099;28;20075;-71
2021/12/01 05:39:45;;;;;;;2.17;1.60;;;;;;;;;;5034218;28;20024;-71
2021/12/01 05:42:12;;;;;;;1.20;1.02;;;;;;;;;;5034719;28;20036;-69
2021/12/01 05:44:39;;;;;;;1.05;0.98;;;;;;;;;;5034429;28;20029;-69
2021/12/01 05:47:05;;;;;;;2.65;1.70;;;;;;;;;;5034228;28;20072;-70
2021/12/01 05:49:31;;;;;;;1.42;1.13;;;;;;;;;;5033849;28;20061;-70
2021/12/01 05:51:57;;;;;;;2.38;1.17;;;;;;;;;;5033873;28;20104;-71
2021/12/01 05:54:23;;;;;;;1.73;0.82;;;;;;;;;;5033590;28;20030;-70
2021/12/01 05:56:49;;;;;;;1.75;1.20;;;;;;;;;;5034134;28;20025;-71
2021/12/01 05:59:16;;;;;;;2.35;1.35;;;;;;;;;;5022406;28;20032;-71
2021/12/01 06:01:42;;;;;;;1.25;1.10;;;;;;;;;;5033510;28;20092;-71
2021/12/01 06:04:08;;;;;;;1.40;1.30;;;;;;;;;;5033448;28;20036;-71
2021/12/01 06:06:34;;;;;;;1.60;1.30;;;;;;;;;;5032249;28;20029;-71
2021/12/01 06:09:00;;;;;;;2.65;2.20;;;;;;;;;;5033335;28;20025;-71
2021/12/01 06:11:26;;;;;;;2.08;1.30;;;;;;;;;;5033373;28;20483;-71
2021/12/01 06:13:52;;;;;;;2.67;2.20;;;;;;;;;;5033643;28;20022;-72
2021/12/01 06:16:25;;;;;;;3.53;1.17;;;;;;;;;;5033719;28;20109;-72
2021/12/01 06:18:51;;;;;;;2.55;1.42;;;;;;;;;;5031453;28;20061;-70
2021/12/01 06:21:17;;;;;;;3.00;1.75;;;;;;;;;;5030691;28;20030;-70
2021/12/01 06:23:43;;;;;;;2.42;1.55;;;;;;;;;;5032835;28;20021;-70
2021/12/01 06:26:10;;;;;;;4.50;1.52;;;;;;;;;;5033201;28;20097;-71
2021/12/01 06:28:36;;;;;;;2.13;1.40;;;;;;;;;;5032912;28;20187;-71
2021/12/01 06:31:02;;;;;;;2.33;0.95;;;;;;;;;;5033016;28;20064;-70
2021/12/01 06:33:28;;;;;;;0.82;0.60;;;;;;;;;;5032547;28;20053;-70
2021/12/01 06:35:54;;;;;;;3.60;0.98;;;;;;;;;;5031782;28;20026;-71
2021/12/01 06:38:20;;;;;;;1.48;0.80;;;;;;;;;;5033151;28;20031;-72
2021/12/01 06:40:47;;;;;;;2.20;0.77;;;;;;;;;;5032379;28;20029;-70
2021/12/01 06:43:13;;;;;;;1.13;0.70;;;;;;;;;;5025145;28;20498;-71
2021/12/01 06:45:39;;;;;;;3.25;0.73;;;;;;;;;;5030097;28;20561;-71
2021/12/01 06:48:06;;;;;;;2.03;1.10;;;;;;;;;;5033011;28;20025;-71
2021/12/01 06:50:32;;;;;;;0.70;0.40;;;;;;;;;;5032613;28;20037;-70
2021/12/01 06:52:58;;;;;;;1.02;0.70;;;;;;;;;;5032855;28;20028;-70
2021/12/01 06:55:24;;;;;;;2.05;1.27;;;;;;;;;;5032772;28;20025;-71
2021/12/01 06:57:50;;;;;;;2.70;0.68;;;;;;;;;;5032574;28;20037;-71
2021/12/01 07:00:18;;;;;;;0.55;0.40;;;;;;;;;;5020086;28;20530;-70
2021/12/01 07:02:44;;;;;;;2.65;0.88;;;;;;;;;;5032645;28;20072;-70
2021/12/01 07:05:10;;;;;;;2.90;0.63;;;;;;;;;;5031227;28;20017;-71
2021/12/01 07:07:36;;;;;;;1.10;0.50;;;;;;;;;;5032310;28;20454;-72
2021/12/01 07:10:04;;;;;;;2.15;0.80;;;;;;;;;;5029718;28;20556;-72
2021/12/01 07:12:30;;;;;;;3.08;2.05;;;;;;;;;;5032200;28;20399;-72
2021/12/01 07:14:56;;;;;;;1.38;0.75;;;;;;;;;;5032032;28;20033;-72
2021/12/01 07:17:22;;;;;;;2.13;0.80;;;;;;;;;;5032507;28;20028;-72
2021/12/01 07:19:48;;;;;;;1.13;0.47;;;;;;;;;;5032364;28;20029;-73
2021/12/01 07:22:14;;;;;;;0.75;0.50;;;;;;;;;;5032038;28;20167;-73
2021/12/01 07:24:40;;;;;;;1.58;0.47;;;;;;;;;;5032303;28;20025;-71
2021/12/01 07:27:06;;;;;;;0.45;0.20;;;;;;;;;;5032508;28;20025;-76
2021/12/01 07:29:35;;;;;;;1.58;1.13;;;;;;;;;;5032064;28;20049;-74
2021/12/01 07:32:01;;;;;;;2.63;0.50;;;;;;;;;;5032129;28;20030;-72
2021/12/01 07:34:27;;;;;;;0.57;0.40;;;;;;;;;;5032109;28;20100;-73
2021/12/01 07:36:53;;;;;;;54.15;29.35;;;;;;;;;;5032092;28;20041;-73
2021/12/01 07:39:19;;;;;;;80.80;42.63;;;;;;;;;;5031468;28;20025;-72
2021/12/01 07:41:46;;;;;;;166.55;81.85;;;;;;;;;;5031645;28;20487;-73
2021/12/01 07:44:12;;;;;;;145.85;70.47;;;;;;;;;;5031510;28;20030;-74
2021/12/01 07:46:38;;;;;;;114.55;61.70;;;;;;;;;;5031294;28;20025;-73
2021/12/01 07:49:04;;;;;;;200.52;101.90;;;;;;;;;;5031705;28;20025;-74
2021/12/01 07:51:31;;;;;;;76.07;38.42;;;;;;;;;;5031750;28;20117;-73
2021/12/01 07:53:57;;;;;;;69.97;36.92;;;;;;;;;;5031568;28;20517;-72
2021/12/01 07:56:23;;;;;;;46.67;22.58;;;;;;;;;;5031360;28;20458;-74
2021/12/01 07:58:49;;;;;;;8.10;4.75;;;;;;;;;;5023364;28;20407;-73
2021/12/01 08:01:15;;;;;;;10.00;6.03;;;;;;;;;;5026544;28;20044;-71
2021/12/01 08:03:41;;;;;;;4.70;1.83;;;;;;;;;;5030096;28;20075;-72
2021/12/01 08:06:08;;;;;;;29.15;14.55;;;;;;;;;;5031524;28;20448;-71
2021/12/01 08:08:34;;;;;;;1.60;0.80;;;;;;;;;;5031356;28;20596;-74
2021/12/01 08:11:00;;;;;;;1.13;0.60;;;;;;;;;;5031568;28;20025;-72
2021/12/01 08:13:26;;;;;;;2.90;0.75;;;;;;;;;;5031105;28;20077;-72
2021/12/01 08:15:52;;;;;;;7.03;2.67;;;;;;;;;;5031395;28;20507;-72
2021/12/01 08:18:19;;;;;;;1.85;0.90;;;;;;;;;;5031703;28;20030;-72
2021/12/01 08:20:45;;;;;;;2.05;0.98;;;;;;;;;;5031412;28;20078;-72
2021/12/01 08:23:11;;;;;;;3.80;0.98;;;;;;;;;;5031387;28;20033;-72
2021/12/01 08:25:38;;;;;;;1.25;0.80;;;;;;;;;;5031789;28;20451;-73
2021/12/01 08:28:04;;;;;;;3.42;1.25;;;;;;;;;;5031389;28;20504;-72
2021/12/01 08:30:31;;;;;;;11.95;5.78;;;;;;;;;;5031356;28;20037;-71
2021/12/01 08:32:58;;;;;;;3.53;1.30;;;;;;;;;;5029589;28;20049;-72
2021/12/01 08:35:24;;;;;;;3.60;1.33;;;;;;;;;;5031338;28;20099;-72
2021/12/01 08:37:51;;;;;;;1.73;1.00;;;;;;;;;;5031199;28;20025;-72
2021/12/01 08:40:18;;;;;;;17.92;8.45;;;;;;;;;;5030995;28;20551;-71
2021/12/01 08:42:44;;;;;;;4.82;1.77;;;;;;;;;;5029538;28;20048;-73
2021/12/01 08:45:11;;;;;;;2.50;1.67;;;;;;;;;;5031539;28;20022;-74
2021/12/01 08:47:37;;;;;;;2.08;1.35;;;;;;;;;;5029481;28;20029;-70
2021/12/01 08:50:04;;;;;;;1.33;0.70;;;;;;;;;;5029532;28;20025;-73
2021/12/01 08:52:30;;;;;;;7.13;4.68;;;;;;;;;;5029598;28;20031;-72
2021/12/01 08:54:56;;;;;;;2.83;1.83;;;;;;;;;;5031133;28;20022;-73
2021/12/01 08:57:22;;;;;;;81.53;41.35;;;;;;;;;;5032109;28;20487;-73
2021/12/01 08:59:49;;;;;;;7.90;4.68;;;;;;;;;;5032258;28;20025;-75
2021/12/01 09:02:15;;;;;;;13.30;7.78;;;;;;;;;;5033464;28;20156;-73
2021/12/01 09:04:41;;;;;;;16.30;8.43;;;;;;;;;;5034722;28;20533;-73
2021/12/01 09:07:07;;;;;;;35.22;17.38;;;;;;;;;;5034964;28;20026;-73
2021/12/01 09:09:33;;;;;;;11.38;5.82;;;;;;;;;;5033287;28;20033;-73
2021/12/01 09:11:59;;;;;;;2.92;1.52;;;;;;;;;;5033480;28;20051;-72
2021/12/01 09:14:26;;;;;;;95.68;48.17;;;;;;;;;;5034520;28;20483;-73
2021/12/01 09:16:55;;;;;;;11.85;6.60;;;;;;;;;;5033122;28;20067;-71
2021/12/01 09:19:21;;;;;;;105.82;54.75;;;;;;;;;;5032957;28;20029;-73
2021/12/01 09:21:48;;;;;;;25.20;12.52;;;;;;;;;;5034401;28;20064;-72
2021/12/01 09:24:14;;;;;;;57.03;29.58;;;;;;;;;;5034469;28;20021;-71
2021/12/01 09:26:41;;;;;;;58.47;30.90;;;;;;;;;;5034398;28;20022;-72
2021/12/01 09:29:07;;;;;;;33.28;18.42;;;;;;;;;;5034505;28;20497;-72
2021/12/01 09:31:33;;;;;;;44.95;23.95;;;;;;;;;;5034213;28;20391;-70
2021/12/01 09:33:59;;;;;;;13.38;7.25;;;;;;;;;;5034214;28;20021;-75
2021/12/01 09:36:26;;;;;;;64.47;34.95;;;;;;;;;;5034452;28;20566;-74
2021/12/01 09:38:52;;;;;;;15.98;9.60;;;;;;;;;;5033010;28;20029;-72
2021/12/01 09:41:18;;;;;;;20.45;11.27;;;;;;;;;;5033963;28;20025;-72
2021/12/01 09:43:44;;;;;;;6.13;3.25;;;;;;;;;;5033833;28;20024;-74
2021/12/01 09:46:10;;;;;;;59.58;32.80;;;;;;;;;;5033957;28;20075;-74
2021/12/01 09:48:38;;;;;;;95.97;46.88;;;;;;;;;;5034122;28;20107;-70
2021/12/01 09:51:04;;;;;;;79.38;40.33;;;;;;;;;;5034055;28;20025;-71
2021/12/01 09:53:31;;;;;;;83.55;44.40;;;;;;;;;;5033595;28;20536;-72
2021/12/01 09:55:57;;;;;;;74.40;40.42;;;;;;;;;;5032884;28;20029;-72
2021/12/01 09:58:24;;;;;;;19.52;10.75;;;;;;;;;;5029483;28;20487;-72
2021/12/01 10:00:51;;;;;;;33.88;17.70;;;;;;;;;;5026745;28;20026;-71
2021/12/01 10:03:17;;;;;;;32.47;17.25;;;;;;;;;;5033719;28;20093;-72
2021/12/01 10:05:47;;;;;;;43.35;23.10;;;;;;;;;;5034047;28;20020;-73
2021/12/01 10:08:19;;;;;;;23.42;12.48;;;;;;;;;;5033354;28;20101;-72
2021/12/01 10:10:46;;;;;;;6.03;2.95;;;;;;;;;;5032279;28;20034;-73
2021/12/01 10:13:12;;;;;;;12.60;7.60;;;;;;;;;;5023664;28;20038;-72
2021/12/01 10:15:38;;;;;;;17.48;9.45;;;;;;;;;;5013731;28;20034;-71
2021/12/01 10:18:11;;;;;;;6.60;4.18;;;;;;;;;;5033560;28;20032;-71
2021/12/01 10:23:13;;;;;;;41.67;22.88;;;;;;;;;;5043475;28;20049;-71
2021/12/01 10:25:39;;;;;;;94.63;53.13;;;;;;;;;;5036946;28;20026;-71
2021/12/01 10:28:06;;;;;;;27.77;14.90;;;;;;;;;;5043177;28;20028;-69
2021/12/01 10:30:40;;;;;;;205.48;113.43;;;;;;;;;;5040449;28;20083;-71
2021/12/01 10:33:10;;;;;;;20.90;11.23;;;;;;;;;;5027785;28;20501;-70
2021/12/01 10:35:37;;;;;;;92.95;49.38;;;;;;;;;;5016692;28;20021;-72
2021/12/01 10:38:04;;;;;;;122.43;66.93;;;;;;;;;;5026097;28;20030;-72
2021/12/01 10:40:30;;;;;;;66.03;37.53;;;;;;;;;;5038466;28;20025;-72
2021/12/01 10:43:14;;;;;;;21.20;11.57;;;;;;;;;;5020238;28;20488;-72
2021/12/01 10:45:40;;;;;;;92.93;54.20;;;;;;;;;;5029489;28;20510;-70
2021/12/01 10:48:11;;;;;;;58.60;32.67;;;;;;;;;;5019638;28;20018;-73
2021/12/01 10:50:38;;;;;;;272.80;151.73;;;;;;;;;;5022717;28;20026;-71
2021/12/01 10:53:06;;;;;;;29.75;13.43;;;;;;;;;;5027363;28;20619;-72
2021/12/01 10:55:32;;;;;;;222.45;109.50;;;;;;;;;;5015291;28;20030;-70
2021/12/01 10:58:00;;;;;;;60.72;32.15;;;;;;;;;;5023747;28;20033;-71
2021/12/01 11:00:27;;;;;;;142.40;75.85;;;;;;;;;;5021592;28;20037;-72
2021/12/01 11:02:54;;;;;;;16.35;8.65;;;;;;;;;;5020025;28;20471;-71
2021/12/01 11:05:27;;;;;;;71.85;37.50;;;;;;;;;;5013176;28;20026;-71
2021/12/01 11:07:53;;;;;;;101.38;54.75;;;;;;;;;;5020862;28;20033;-71
2021/12/01 11:10:25;;;;;;;94.45;51.28;;;;;;;;;;5027318;28;20032;-72
2021/12/01 11:12:55;;;;;;;104.60;55.92;;;;;;;;;;5027282;28;20029;-72
2021/12/01 11:15:51;;;;;;;9.15;5.30;;;;;;;;;;5025341;28;20457;-71
2021/12/01 11:18:19;;;;;;;77.63;40.60;;;;;;;;;;5002246;28;20167;-71
2021/12/01 11:20:45;;;;;;;37.90;21.08;;;;;;;;;;5021637;28;20076;-71
2021/12/01 11:23:15;;;;;;;220.02;122.00;;;;;;;;;;5023093;28;20391;-70
2021/12/01 11:25:42;;;;;;;82.30;42.58;;;;;;;;;;5019117;28;20091;-71
2021/12/01 11:28:09;;;;;;;77.80;40.67;;;;;;;;;;5020121;28;20084;-70
2021/12/01 11:30:36;;;;;;;144.90;80.78;;;;;;;;;;5021109;28;20427;-69
2021/12/01 11:33:03;;;;;;;141.10;73.15;;;;;;;;;;5022854;28;20025;-70
2021/12/01 11:35:29;;;;;;;104.35;54.40;;;;;;;;;;5020498;28;20038;-69
2021/12/01 11:37:57;;;;;;;64.05;34.08;;;;;;;;;;5019574;28;20068;-71
2021/12/01 11:40:26;;;;;;;100.47;53.20;;;;;;;;;;5019687;28;20037;-71
2021/12/01 11:42:52;;;;;;;114.43;60.65;;;;;;;;;;5039671;28;20017;-69
2021/12/01 11:45:19;;;;;;;112.45;65.68;;;;;;;;;;5015975;28;20068;-72
2021/12/01 11:47:48;;;;;;;157.68;85.05;;;;;;;;;;4999427;28;20095;-72
2021/12/01 11:50:26;;;;;;;43.25;24.13;;;;;;;;;;5024245;28;20430;-73
2021/12/01 11:53:11;;;;;;;46.42;25.00;;;;;;;;;;5024764;28;20051;-73
2021/12/01 11:55:50;;;;;;;18.63;9.80;;;;;;;;;;5013987;28;20041;-72
2021/12/01 11:58:34;;;;;;;58.67;32.10;;;;;;;;;;5023823;28;20053;-71
2021/12/01 12:01:00;;;;;;;101.15;55.88;;;;;;;;;;5014236;28;20148;-71
2021/12/01 12:03:27;;;;;;;67.68;36.33;;;;;;;;;;5011812;28;20018;-70
2021/12/01 12:06:12;;;;;;;114.07;60.03;;;;;;;;;;5016302;28;20101;-71
2021/12/01 12:08:56;;;;;;;49.72;26.35;;;;;;;;;;5009630;28;20056;-71
2021/12/01 12:11:41;;;;;;;66.47;38.08;;;;;;;;;;5027057;28;20491;-70
2021/12/01 12:14:07;;;;;;;93.45;51.90;;;;;;;;;;5018402;28;20026;-69
2021/12/01 12:16:33;;;;;;;88.75;50.65;;;;;;;;;;5022033;28;20040;-69
2021/12/01 12:19:00;;;;;;;157.50;89.80;;;;;;;;;;5025802;28;20308;-70
2021/12/01 12:21:37;;;;;;;44.40;25.95;;;;;;;;;;5014951;28;20030;-70
2021/12/01 12:24:12;;;;;;;32.05;17.50;;;;;;;;;;5025323;28;20022;-70
2021/12/01 12:26:44;;;;;;;43.45;25.48;;;;;;;;;;5022290;28;20071;-70
2021/12/01 12:29:15;;;;;;;84.72;47.30;;;;;;;;;;5016973;28;20037;-71
2021/12/01 12:31:42;;;;;;;37.08;20.52;;;;;;;;;;5027772;28;20100;-72
2021/12/01 12:34:13;;;;;;;10.98;5.78;;;;;;;;;;5017915;28;20021;-70
2021/12/01 12:36:39;;;;;;;240.02;147.95;;;;;;;;;;5020415;28;20490;-70
2021/12/01 12:39:28;;;;;;;73.13;40.63;;;;;;;;;;5025925;28;20452;-70
2021/12/01 12:41:55;;;;;;;59.90;33.15;;;;;;;;;;4992377;28;20051;-71
2021/12/01 12:44:29;;;;;;;25.63;13.75;;;;;;;;;;4990010;28;20110;-70
2021/12/01 12:47:04;;;;;;;75.53;42.55;;;;;;;;;;4990773;28;20022;-66
2021/12/01 12:49:56;;;;;;;13.05;7.80;;;;;;;;;;4991973;28;20034;-68
2021/12/01 12:52:25;;;;;;;24.45;13.63;;;;;;;;;;4991498;28;20472;-68
2021/12/01 12:55:17;;;;;;;6.90;3.20;;;;;;;;;;5005918;28;20031;-67
2021/12/01 12:57:48;;;;;;;42.30;23.17;;;;;;;;;;4989745;28;20057;-68
2021/12/01 13:00:22;;;;;;;32.97;18.17;;;;;;;;;;4990922;28;20477;-67
2021/12/01 13:02:49;;;;;;;10.75;5.65;;;;;;;;;;4990876;28;20019;-66
2021/12/01 13:05:28;;;;;;;33.92;19.13;;;;;;;;;;4991035;28;20019;-67
2021/12/01 13:07:56;;;;;;;12.07;7.20;;;;;;;;;;5005957;28;20065;-67
2021/12/01 13:10:22;;;;;;;57.33;33.42;;;;;;;;;;4991272;28;20037;-66
2021/12/01 13:12:57;;;;;;;5.55;3.22;;;;;;;;;;4991761;28;20149;-66
2021/12/01 13:15:23;;;;;;;3.05;0.98;;;;;;;;;;4992477;28;20544;-67
2021/12/01 13:17:50;;;;;;;18.25;10.57;;;;;;;;;;4992516;28;20034;-66
2021/12/01 13:20:25;;;;;;;24.95;13.13;;;;;;;;;;4991902;28;20476;-67
2021/12/01 13:23:04;;;;;;;1.85;1.20;;;;;;;;;;4991568;28;20030;-67
2021/12/01 13:25:30;;;;;;;34.55;18.85;;;;;;;;;;5006822;28;20037;-67
2021/12/01 13:27:57;;;;;;;19.88;11.63;;;;;;;;;;4991596;28;20031;-68
2021/12/01 13:30:23;;;;;;;51.47;28.55;;;;;;;;;;4991601;28;20030;-67
2021/12/01 13:33:08;;;;;;;36.60;21.50;;;;;;;;;;4991809;28;20427;-66
2021/12/01 13:35:34;;;;;;;26.33;13.85;;;;;;;;;;4991679;28;20034;-67
2021/12/01 13:38:00;;;;;;;9.55;5.38;;;;;;;;;;5006834;28;20034;-67
2021/12/01 13:40:27;;;;;;;7.82;4.38;;;;;;;;;;4991482;28;20045;-66
2021/12/01 13:42:53;;;;;;;11.30;6.28;;;;;;;;;;4991218;28;20023;-66
2021/12/01 13:45:19;;;;;;;2.63;1.00;;;;;;;;;;4994405;28;20028;-67
2021/12/01 13:47:45;;;;;;;7.18;3.85;;;;;;;;;;4994887;28;20124;-68
2021/12/01 13:50:11;;;;;;;4.28;2.55;;;;;;;;;;5010030;28;20066;-67
2021/12/01 13:52:39;;;;;;;14.32;7.45;;;;;;;;;;5009911;28;20038;-68
2021/12/01 13:55:21;;;;;;;26.88;15.07;;;;;;;;;;4994718;28;20022;-67
2021/12/01 13:58:07;;;;;;;19.83;9.95;;;;;;;;;;4994665;28;20031;-67
2021/12/01 14:00:38;;;;;;;37.20;20.45;;;;;;;;;;4994624;28;20487;-67
2021/12/01 14:03:05;;;;;;;21.92;12.20;;;;;;;;;;4994927;28;20072;-66
2021/12/01 14:05:31;;;;;;;55.22;31.30;;;;;;;;;;4994788;28;20041;-66
2021/12/01 14:07:57;;;;;;;15.88;8.73;;;;;;;;;;4994867;28;20029;-67
2021/12/01 14:10:23;;;;;;;22.42;12.50;;;;;;;;;;5009762;28;20027;-66
2021/12/01 14:12:56;;;;;;;9.48;5.68;;;;;;;;;;4994348;28;20037;-66
2021/12/01 14:15:26;;;;;;;17.58;9.93;;;;;;;;;;5009915;28;20672;-66
2021/12/01 14:17:52;;;;;;;33.15;18.50;;;;;;;;;;4994516;28;20069;-67
2021/12/01 14:20:18;;;;;;;16.65;9.23;;;;;;;;;;4994492;28;20031;-67
2021/12/01 14:22:45;;;;;;;18.23;9.88;;;;;;;;;;4993854;28;20392;-67
2021/12/01 14:25:12;;;;;;;5.90;3.50;;;;;;;;;;5009735;28;20038;-67
2021/12/01 14:27:40;;;;;;;18.00;10.20;;;;;;;;;;4994747;28;20026;-66
2021/12/01 14:30:08;;;;;;;10.10;5.70;;;;;;;;;;4994356;28;20027;-67
2021/12/01 14:32:34;;;;;;;2.90;2.25;;;;;;;;;;4994148;28;20496;-67
2021/12/01 14:35:02;;;;;;;3.35;2.13;;;;;;;;;;4993989;28;20034;-67
2021/12/01 14:37:28;;;;;;;11.88;5.90;;;;;;;;;;4994341;28;20022;-67
2021/12/01 14:40:14;;;;;;;13.07;6.97;;;;;;;;;;4994055;28;20101;-67
2021/12/01 14:42:41;;;;;;;16.13;8.45;;;;;;;;;;4993921;28;20027;-67
2021/12/01 14:45:07;;;;;;;9.70;5.45;;;;;;;;;;5008871;28;20062;-67
2021/12/01 14:47:34;;;;;;;5.47;3.22;;;;;;;;;;4993852;28;20030;-67